Aviation Digital Data Service (ADDS)

Output produced by METARs form (2012 UTC 23 January 2019)
found at http://www.aviationweather.gov/metar/data/
 
Forecast for: VTUI (SAKON NAKHON , TH)
Text: TAF VTUI 231700Z 2318/2418 11008KT 9000 NSC
Forecast period: 1800 UTC 23 January 2019 to 0200 UTC 24 January 2019
Forecast type: FROM: standard forecast or significant change
Winds: from the ESE (110 degrees) at 9 MPH (8 knots; 4.1 m/s)
Visibility: 6 miles (9 km)
Ceiling: unknown
Clouds: missing
Weather: no significant weather forecast for this period
Text: BECMG 2402/2404 08005KT CAVOK
Forecast period: 0200 to 1800 UTC 24 January 2019
Forecast type: BECOMING: Conditions expected to become as follows by 0400 UTC 24 January 2019
Winds: from the E (80 degrees) at 6 MPH (5 knots; 2.6 m/s)
Visibility: 6 or more miles 10+ km)
Ceiling: unknown
Clouds: missing
Weather: NSW  (no significant weather)